• Join FlightAware (Why Join?)
  • Login
  • US Flag 
01:42AM EST


 

Airport Tracker/Info


-or-


 

Live Flight TrackerFlight Track Log ✈ SWA864 ✈ 18-May-2013 ✈ KMCO - KSTL

Flight Track Log - Related Links

Times and Time Zones

All times are in EDT time to prevent confusion due to time zone crossing. See the SWA864 flight status page for this flight to view local times or setup timezone preferences in your user account.

Time Position Orientation Groundspeed Altitude Reporting Facility
EDT Latitude Longitude Course Direction KTS MPH feet Rate Location/Type
07:31PM 28.4167 -81.3000 204° Southwest 152 175 900  Level Orlando TRACON
07:31PM 28.3833 -81.3167 204° Southwest 211 243 2,500 2,760 Climbing Orlando TRACON
07:32PM 28.3333 -81.3500 210° Southwest 211 243 5,400 3,300 Climbing Orlando TRACON
07:35PM 28.3144 -81.5839 265° West 300 345 13,900 3,540 Climbing Jacksonville Center
07:36PM 28.3281 -81.6969 278° West 336 387 17,800 3,300 Climbing Jacksonville Center
07:37PM 28.3728 -81.8025 296° West 355 409 20,500 2,880 Climbing Jacksonville Center
07:38PM 28.4197 -81.9225 294° West 385 443 23,600 2,520 Climbing Jacksonville Center
07:39PM 28.4578 -82.0236 293° West 411 473 25,600 2,160 Climbing Jacksonville Center
07:40PM 28.5131 -82.1650 294° West 439 505 28,000 2,700 Climbing Jacksonville Center
07:41PM 28.5639 -82.2922 294° West 444 511 31,000 2,640 Climbing Jacksonville Center
07:42PM 28.6561 -82.3792 320° Northwest 433 498 33,300 2,400 Climbing Jacksonville Center
07:43PM 28.7628 -82.4617 326° Northwest 422 486 35,900 1,320 Climbing Jacksonville Center
07:44PM 28.8631 -82.5369 327° Northwest 422 486 36,000  Climbing Jacksonville Center
07:45PM 28.9614 -82.6078 328° Northwest 422 486 36,000 1,260 Level Jacksonville Center
07:46PM 29.0556 -82.6811 326° Northwest 422 486 38,600 1,920 Climbing Jacksonville Center
07:47PM 29.1475 -82.7475 328° Northwest 410 472 39,900 660 Climbing Jacksonville Center
07:48PM 29.2372 -82.8164 326° Northwest 399 459 40,000  Climbing Jacksonville Center
07:49PM 29.3269 -82.8856 326° Northwest 394 453 40,000  Level Jacksonville Center
07:50PM 29.4189 -82.9569 326° Northwest 394 453 40,000  Level Jacksonville Center
07:51PM 29.5044 -83.0192 328° Northwest 400 460 40,000  Level Jacksonville Center
07:52PM 29.5983 -83.0931 326° Northwest 405 466 40,000  Level Jacksonville Center
07:53PM 29.6900 -83.1603 328° Northwest 405 466 40,000  Level Jacksonville Center
07:54PM 29.7839 -83.2325 326° Northwest 400 460 40,000  Level Jacksonville Center
07:55PM 29.8733 -83.3022 326° Northwest 395 455 40,000  Level Jacksonville Center
07:56PM 29.9650 -83.3719 327° Northwest 395 455 40,000  Level Jacksonville Center
07:57PM 30.0567 -83.4422 326° Northwest 395 455 40,000  Level Jacksonville Center
07:58PM 30.1461 -83.5122 326° Northwest 395 455 40,000  Level Jacksonville Center
07:59PM 30.2375 -83.5825 326° Northwest 395 455 40,000  Level Jacksonville Center
08:00PM 30.3289 -83.6531 326° Northwest 395 455 40,000  Level Jacksonville Center
08:01PM 30.4203 -83.7261 325° Northwest 395 455 40,000  Level Jacksonville Center
08:02PM 30.5117 -83.7969 326° Northwest 395 455 40,000  Level Jacksonville Center
08:03PM 30.6094 -83.8725 326° Northwest 395 455 40,000  Level Jacksonville Center
08:04PM 30.7006 -83.9436 326° Northwest 395 455 40,000  Level Jacksonville Center
08:05PM 30.7919 -84.0172 325° Northwest 395 455 40,000  Level Jacksonville Center
08:06PM 30.8811 -84.0883 326° Northwest 395 455 40,000  Level Jacksonville Center
08:07PM 30.9742 -84.1622 326° Northwest 395 455 40,000  Level Jacksonville Center
08:08PM 31.0653 -84.2361 325° Northwest 395 455 40,000  Level Jacksonville Center
08:10PM 31.2453 -84.3764 326° Northwest 391 450 40,000  Level Atlanta Center
08:11PM 31.3347 -84.4497 325° Northwest 391 450 40,000  Level Atlanta Center
08:12PM 31.4242 -84.5208 326° Northwest 396 456 40,000  Level Atlanta Center
08:13PM 31.5158 -84.5942 326° Northwest 396 456 40,000  Level Atlanta Center
08:14PM 31.6156 -84.6753 325° Northwest 396 456 40,000  Level Atlanta Center
08:15PM 31.7092 -84.7492 326° Northwest 396 456 40,000  Level Atlanta Center
08:16PM 31.8006 -84.8233 325° Northwest 396 456 40,000  Level Atlanta Center
08:17PM 31.8939 -84.8975 326° Northwest 396 456 40,000  Level Atlanta Center
08:18PM 31.9831 -84.9717 325° Northwest 396 456 40,000  Level Atlanta Center
08:19PM 32.0722 -85.0461 325° Northwest 396 456 40,000  Level Atlanta Center
08:20PM 32.1614 -85.1183 326° Northwest 402 463 40,000  Level Atlanta Center
08:21PM 32.2444 -85.1833 327° Northwest 402 463 40,000  Level Atlanta Center
08:22PM 32.3333 -85.2533 326° Northwest 397 457 40,000  Level Atlanta Center
08:23PM 32.4286 -85.3283 326° Northwest 397 457 40,000  Level Atlanta Center
08:24PM 32.5156 -85.4011 325° Northwest 397 457 40,000  Level Atlanta Center
08:25PM 32.6067 -85.4739 326° Northwest 397 457 40,000  Level Atlanta Center
08:26PM 32.6975 -85.5494 325° Northwest 397 457 40,000  Level Atlanta Center
08:27PM 32.7883 -85.6253 325° Northwest 397 457 40,000  Level Atlanta Center
08:28PM 32.8772 -85.7008 324° Northwest 397 457 40,000  Level Atlanta Center
08:29PM 32.9658 -85.7769 324° Northwest 397 457 40,000  Level Atlanta Center
08:30PM 33.0544 -85.8506 325° Northwest 397 457 40,000  Level Atlanta Center
08:31PM 33.1453 -85.9244 326° Northwest 397 457 40,000  Level Atlanta Center
08:32PM 33.2361 -85.9983 326° Northwest 397 457 40,000  Level Atlanta Center
08:33PM 33.3264 -86.0800 323° Northwest 403 464 40,000  Level Atlanta Center
08:34PM 33.4172 -86.1542 326° Northwest 403 464 40,000  Level Atlanta Center
08:35PM 33.5056 -86.2286 325° Northwest 403 464 40,000  Level Atlanta Center
08:36PM 33.6022 -86.3133 324° Northwest 398 458 40,000  Level Atlanta Center
08:37PM 33.6925 -86.3883 325° Northwest 398 458 40,000  Level Atlanta Center
08:38PM 33.7831 -86.4631 326° Northwest 398 458 40,000  Level Atlanta Center
08:39PM 33.8731 -86.5433 323° Northwest 398 458 40,000  Level Atlanta Center
08:40PM 33.9633 -86.6186 325° Northwest 398 458 40,000  Level Atlanta Center
08:42PM 34.1547 -86.7856 324° Northwest 401 461 40,000  Level Memphis Center
08:43PM 34.2444 -86.8647 324° Northwest 401 461 40,000  Level Memphis Center
08:44PM 34.3367 -86.9489 323° Northwest 401 461 40,000  Level Memphis Center
08:45PM 34.4286 -87.0283 325° Northwest 407 468 40,000  Level Memphis Center
08:46PM 34.5267 -87.1153 324° Northwest 402 463 40,000  Level Memphis Center
08:47PM 34.6164 -87.1950 324° Northwest 402 463 40,000  Level Memphis Center
08:48PM 34.7103 -87.2750 325° Northwest 402 463 40,000  Level Memphis Center
08:49PM 34.7997 -87.3525 325° Northwest 402 463 40,000  Level Memphis Center
08:50PM 34.8914 -87.4356 323° Northwest 402 463 40,000  Level Memphis Center
08:51PM 34.9808 -87.5108 325° Northwest 402 463 40,000  Level Memphis Center
08:52PM 35.0725 -87.5914 324° Northwest 402 463 40,000  Level Memphis Center
08:53PM 35.1553 -87.6650 324° Northwest 407 468 40,000  Level Memphis Center
08:54PM 35.2467 -87.7458 324° Northwest 407 468 40,000  Level Memphis Center
08:55PM 35.3381 -87.8269 324° Northwest 412 474 40,000  Level Memphis Center
08:56PM 35.4275 -87.9111 323° Northwest 412 474 40,000  Level Memphis Center
08:57PM 35.5208 -87.9950 324° Northwest 412 474 40,000  Level Memphis Center
08:58PM 35.6142 -88.0767 325° Northwest 417 480 40,000  Level Memphis Center
08:59PM 35.7053 -88.1533 326° Northwest 411 473 40,000  Level Memphis Center
09:00PM 35.7964 -88.2353 324° Northwest 411 473 40,000  Level Memphis Center
09:01PM 35.8875 -88.3200 323° Northwest 416 479 40,000  Level Memphis Center
09:02PM 35.9783 -88.4050 323° Northwest 416 479 40,000 -60 Level Memphis Center
09:03PM 36.0694 -88.4850 325° Northwest 411 473 39,900 -600 Descending Memphis Center
09:04PM 36.1603 -88.5703 323° Northwest 411 473 38,900 -960 Descending Memphis Center
09:05PM 36.2511 -88.6533 324° Northwest 411 473 38,000 -900 Descending Memphis Center
09:06PM 36.3419 -88.7364 324° Northwest 411 473 37,100 -960 Descending Memphis Center
09:07PM 36.4325 -88.8197 323° Northwest 411 473 36,100 -960 Descending Memphis Center
09:08PM 36.5253 -88.9083 323° Northwest 416 479 35,200 -960 Descending Memphis Center
09:09PM 36.6158 -88.9944 323° Northwest 416 479 34,200 -600 Descending Memphis Center
09:10PM 36.7106 -89.0836 323° Northwest 416 479 34,000 -120 Descending Memphis Center
09:11PM 36.8011 -89.1675 323° Northwest 416 479 34,000 -120 Level Memphis Center
09:12PM 36.8958 -89.2569 323° Northwest 416 479 33,800 -600 Descending Memphis Center
09:13PM 36.9881 -89.3439 323° Northwest 416 479 32,800 -2,100 Descending Memphis Center
09:15PM 37.1819 -89.5311 322° Northwest 413 475 27,200 -2,100 Descending Kansas City Center
09:16PM 37.2744 -89.6031 328° Northwest 399 459 26,000 -600 Descending Kansas City Center
09:17PM 37.3956 -89.6656 338° Northwest 393 452 26,000  Level Kansas City Center
09:18PM 37.4958 -89.7222 336° Northwest 394 453 26,000  Level Kansas City Center
09:19PM 37.5825 -89.7681 337° Northwest 393 452 26,000  Level Kansas City Center
09:20PM 37.6833 -89.8233 337° Northwest 394 453 26,000  Level Kansas City Center
09:21PM 37.7836 -89.8786 336° Northwest 394 453 26,000 -600 Level Kansas City Center
09:22PM 37.9039 -89.9422 337° Northwest 397 457 24,800 -1,920 Descending Kansas City Center
09:23PM 38.0011 -89.9953 337° Northwest 385 443 22,200 -2,520 Descending Kansas City Center
09:24PM 38.0972 -90.0497 336° Northwest 374 430 19,700 -2,460 Descending Kansas City Center
09:25PM 38.1881 -90.1011 336° Northwest 363 418 17,200 -2,340 Descending Kansas City Center
09:26PM 38.2753 -90.1503 336° Northwest 350 403 15,000 -1,680 Descending Kansas City Center
09:27PM 38.3578 -90.1975 336° Northwest 333 383 13,900 -1,740 Descending Kansas City Center
09:28PM 38.4447 -90.2467 336° Northwest 320 368 11,500 -1,920 Descending Kansas City Center
09:30PM 38.5233 -90.2900 337° Northwest 311 358 10,100 -1,440 Descending Kansas City Center
09:31PM 38.5928 -90.3303 336° Northwest 285 328 8,700 -1,500 Descending Kansas City Center
09:32PM 38.6511 -90.3661 334° Northwest 266 306 7,100 -1,380 Descending Kansas City Center
09:33PM 38.6897 -90.4469 301° West 258 297 6,000 -1,140 Descending Kansas City Center
09:34PM 38.7242 -90.5189 302° West 240 276 4,800 -1,140 Descending Kansas City Center
09:35PM 38.7725 -90.5467 336° Northwest 229 264 3,800 -1,080 Descending Kansas City Center
09:36PM 38.7989 -90.4894 59° Northeast 201 231 2,700 -960 Descending Kansas City Center
09:37PM 38.7894 -90.4433 105° East 164 189 1,900 -720 Descending Kansas City Center
09:38PM 38.7722 -90.4064 121° Southeast 138 159 1,300 -600 Descending Kansas City Center
09:39PM 38.7550 -90.3711 122° Southeast 123 142 700 -600 Descending Kansas City Center